30 juin 2022

Temps Code Temps Temp. Vue Base cloud Vent METAR/SPECI
12:00 am
V
63 °F 9 mi - 310° 310° 9 kt METAR CYHU 300400Z AUTO 31009KT 9SM CLR 17/14 A3015 RMK SLP211 DENSITY ALT 100FT

29 juin 2022

Temps Code Temps Temp. Vue Base cloud Vent METAR/SPECI
11:00 pm
M
63 °F 9 mi 2.700 ft 270° 270° 3 kt METAR CYHU 300300Z AUTO 27003KT 9SM BKN027 OVC050 17/16 A3013 RMK SLP206 DENSITY ALT 200FT
10:37 pm
V
63 °F 9 mi 6.600 ft 240° 240° 7 kt METAR CYHU 300237Z AUTO 24007KT 9SM FEW027 SCT050 OVC066 17/16 A3014 RMK ICE MISG SLP208 DENSITY ALT 200FT
10:06 pm
V
66 °F 9 mi 5.500 ft 270° 270° 11 kt METAR CYHU 300206Z AUTO 27011KT 9SM -RA SCT044 OVC055 19/14 A3013 RMK SLP205 DENSITY ALT 300FT
10:00 pm
V
66 °F 9 mi 5.500 ft 270° 270° 10 kt METAR CYHU 300200Z AUTO 27010KT 9SM SCT044 OVC055 19/14 A3013 RMK SLP204 DENSITY ALT 400FT
9:00 pm
V
66 °F 9 mi 4.800 ft 270° 270° 8 - 15 kt METAR CYHU 300100Z AUTO 27008G15KT 9SM FEW029 BKN048 BKN091 OVC160 19/14 A3011 RMK SLP197 DENSITY ALT 400FT
8:00 pm
V
66 °F 9 mi 7.100 ft 260° 260° 10 kt METAR CYHU 300000Z AUTO 26010KT 9SM OVC071 19/14 A3010 RMK SLP196 DENSITY ALT 500FT
7:39 pm
V
66 °F 9 mi 8.100 ft 250° 250° 9 - 15 kt METAR CYHU 292339Z AUTO 25009G15KT 9SM OVC081 19/14 A3010 RMK SLP196 DENSITY ALT 400FT
7:26 pm
V
66 °F 9 mi 8.600 ft 250° 250° 7 kt METAR CYHU 292326Z AUTO 25007KT 9SM -RA OVC086 19/15 A3011 RMK SLP197 DENSITY ALT 400FT
7:23 pm
V
66 °F 9 mi 8.600 ft 240° 240° 7 kt METAR CYHU 292323Z AUTO 24007KT 9SM OVC086 19/15 A3011 RMK SLP197 DENSITY ALT 400FT
7:00 pm
V
66 °F 9 mi 9.100 ft 240° 240° 7 kt METAR CYHU 292300Z AUTO 24007KT 9SM -RA OVC091 19/15 A3011 RMK SLP197 DENSITY ALT 400FT
6:20 pm
V
66 °F 9 mi 9.100 ft 250° 250° 9 - 16 kt METAR CYHU 292220Z AUTO 25009G16KT 9SM -RA OVC091 19/14 A3011 RMK SLP197 DENSITY ALT 400FT
6:15 pm
V
66 °F 9 mi 9.100 ft 250° 250° 12 kt METAR CYHU 292215Z AUTO 25012KT 9SM OVC091 19/13 A3011 RMK SLP197 DENSITY ALT 500FT
6:00 pm
V
68 °F 9 mi 9.600 ft 240° 240° 11 - 17 kt METAR CYHU 292200Z AUTO 24011G17KT 210V290 9SM -RA BKN096 20/13 A3010 RMK SLP196 DENSITY ALT 500FT
5:47 pm
V
68 °F 9 mi 10.000 ft 270° 270° 12 kt METAR CYHU 292147Z AUTO 27012KT 9SM -RA BKN100 20/13 A3010 RMK LTNG DIST E SLP196 DENSITY ALT 500FT
5:00 pm
V
68 °F 9 mi 14.000 ft 260° 260° 12 - 20 kt METAR CYHU 292100Z AUTO 26012G20KT 9SM SCT076 SCT120 BKN140 20/14 A3011 RMK SLP197 DENSITY ALT 500FT
4:35 pm
V
66 °F 9 mi 7.100 ft 280° 280° 15 - 24 kt METAR CYHU 292035Z AUTO 28015G24KT 9SM FEW032 SCT050 BKN071 OVC095 19/15 A3009 RMK LTNG DIST NE E S SLP191 DENSITY ALT 500FT
4:31 pm
V
66 °F 9 mi 7.100 ft 290° 290° 12 - 24 kt METAR CYHU 292031Z AUTO 29012G24KT 250V320 9SM VCTS FEW032 SCT050 BKN071 OVC097 19/14 A3008 RMK LTNG DIST NE E S SLP189 DENSITY ALT 500FT
4:07 pm
V
68 °F 9 mi 5.000 ft 290° 290° 14 - 19 kt METAR CYHU 292007Z AUTO 29014G19KT 230V020 9SM TS FEW034 OVC050 20/15 A3010 RMK LTNG DIST N NE S SLP196 DENSITY ALT 500FT
4:00 pm
V
68 °F 9 mi 5.000 ft 300° 300° 3 kt METAR CYHU 292000Z AUTO 30003KT 240V020 9SM TS FEW034 OVC050 20/15 A3010 RMK LTNG DIST N NE S PCPN 1.0MM PAST HR SLP193 DENSITY ALT 500FT
3:38 pm
V
68 °F 9 mi 5.500 ft 290° 290° 13 - 24 kt METAR CYHU 291938Z AUTO 29013G24KT 9SM -TSRA SCT037 BKN055 BKN074 OVC097 20/15 A3009 RMK PRESRR SLP192 DENSITY ALT 500FT
3:31 pm
V
72 °F 7 mi 6.900 ft 300° 300° 20 kt METAR CYHU 291931Z AUTO 30020KT 150V320 7SM SCT055 BKN069 BKN087 22/14 A3008 RMK PRESRR SLP189 DENSITY ALT 800FT
3:00 pm
V
77 °F 9 mi - 190° 190° 8 - 16 kt METAR CYHU 291900Z AUTO 19008G16KT 160V220 9SM FEW060 SCT074 SCT100 25/15 A3006 RMK LTNG DIST NW SLP182 DENSITY ALT 1200FT
2:00 pm
V
77 °F 9 mi 5.500 ft 170° 170° 12 kt METAR CYHU 291800Z AUTO 17012KT 130V200 9SM BKN055 25/14 A3009 RMK SLP190 DENSITY ALT 1100FT
1:19 pm
V
77 °F 9 mi - 170° 170° 11 - 16 kt METAR CYHU 291719Z AUTO 17011G16KT 9SM CLR 25/14 A3010 RMK WSHFT AT 1707Z SLP196 DENSITY ALT 1100FT
1:00 pm
V
75 °F 9 mi - 230° 230° 11 - 16 kt METAR CYHU 291700Z AUTO 23011G16KT 9SM CLR 24/12 A3011 RMK SLP198 DENSITY ALT 1000FT
12:00 pm
V
75 °F 9 mi - 240° 240° 11 - 16 kt METAR CYHU 291600Z AUTO 24011G16KT 170V250 9SM CLR 24/13 A3012 RMK SLP202 DENSITY ALT 1000FT
11:00 am
V
72 °F 9 mi - 210° 210° 10 - 17 kt METAR CYHU 291500Z AUTO 21010G17KT 190V250 9SM CLR 22/12 A3014 RMK SLP208 DENSITY ALT 800FT
10:00 am
V
72 °F 9 mi - 240° 240° 9 kt METAR CYHU 291400Z AUTO 24009KT 9SM CLR 22/11 A3015 RMK SLP210 DENSITY ALT 700FT
9:00 am
V
68 °F 9 mi - 210° 210° 6 kt METAR CYHU 291300Z AUTO 21006KT 170V240 9SM CLR 20/11 A3015 RMK SLP212 DENSITY ALT 500FT
8:00 am
V
66 °F 9 mi - 180° 180° 6 kt METAR CYHU 291200Z AUTO 18006KT 9SM CLR 19/11 A3016 RMK SLP214 DENSITY ALT 300FT
7:00 am
V
61 °F 9 mi - 190° 190° 6 kt METAR CYHU 291100Z AUTO 19006KT 9SM CLR 16/11 A3016 RMK SLP214 DENSITY ALT 100FT
6:00 am
V
57 °F 9 mi - 170° 170° 7 kt METAR CYHU 291000Z AUTO 17007KT 9SM CLR 14/11 A3015 RMK SLP212
5:00 am
V
57 °F 9 mi - 170° 170° 6 kt METAR CYHU 290900Z AUTO 17006KT 9SM CLR 14/11 A3014 RMK SLP208
4:00 am
V
61 °F 9 mi - 210° 210° 6 kt METAR CYHU 290800Z AUTO 21006KT 9SM CLR 16/11 A3013 RMK SLP204
3:00 am
V
63 °F 9 mi - 230° 230° 7 kt METAR CYHU 290700Z AUTO 23007KT 9SM CLR 17/11 A3013 RMK SLP204 DENSITY ALT 100FT
2:00 am
V
63 °F 9 mi - 230° 230° 8 kt METAR CYHU 290600Z AUTO 23008KT 9SM CLR 17/12 A3013 RMK SLP205 DENSITY ALT 200FT
1:00 am
V
64 °F 9 mi - 230° 230° 10 kt METAR CYHU 290500Z AUTO 23010KT 9SM CLR 18/12 A3013 RMK SLP205 DENSITY ALT 200FT
12:00 am
V
66 °F 9 mi - 220° 220° 11 kt METAR CYHU 290400Z AUTO 22011KT 9SM CLR 19/13 A3012 RMK SLP202 DENSITY ALT 400FT

28 juin 2022

Temps Code Temps Temp. Vue Base cloud Vent METAR/SPECI
11:00 pm
V
66 °F 9 mi - 220° 220° 7 kt METAR CYHU 290300Z AUTO 22007KT 9SM CLR 19/13 A3013 RMK SLP203 DENSITY ALT 400FT
10:00 pm
V
68 °F 9 mi - 220° 220° 6 kt METAR CYHU 290200Z AUTO 22006KT 9SM CLR 20/12 A3012 RMK SLP200 DENSITY ALT 500FT
9:00 pm
V
68 °F 9 mi - 230° 230° 7 kt METAR CYHU 290100Z AUTO 23007KT 9SM CLR 20/12 A3010 RMK SLP196 DENSITY ALT 600FT
8:00 pm
V
72 °F 9 mi - 230° 230° 12 kt METAR CYHU 290000Z AUTO 23012KT 9SM CLR 22/11 A3009 RMK SLP191 DENSITY ALT 800FT
7:00 pm
V
73 °F 9 mi - 230° 230° 12 kt METAR CYHU 282300Z AUTO 23012KT 9SM FEW066 23/11 A3009 RMK SLP191 DENSITY ALT 800FT
6:00 pm
V
73 °F 9 mi - 250° 250° 15 - 20 kt METAR CYHU 282200Z AUTO 25015G20KT 9SM SCT071 23/11 A3009 RMK SLP190 DENSITY ALT 900FT
5:13 pm
V
73 °F 9 mi - 260° 260° 11 - 16 kt METAR CYHU 282113Z AUTO 26011G16KT 9SM CLR 23/11 A3009 RMK WSHFT AT 2101Z SLP192 DENSITY ALT 900FT
5:00 pm
V
73 °F 9 mi - 210° 210° 12 - 20 kt METAR CYHU 282100Z AUTO 21012G20KT 200V260 9SM CLR 23/11 A3009 RMK SLP192 DENSITY ALT 900FT
3:00 pm
V
73 °F 9 mi 7.600 ft 250° 250° 12 - 18 kt METAR CYHU 281900Z AUTO 25012G18KT 9SM BKN076 23/11 A3010 RMK SLP196 DENSITY ALT 900FT
2:00 pm
V
72 °F 9 mi 6.600 ft 240° 240° 11 kt METAR CYHU 281800Z AUTO 24011KT 200V280 9SM BKN066 BKN076 22/10 A3011 RMK SLP199 DENSITY ALT 800FT
1:00 pm
V
72 °F 9 mi 7.600 ft 250° 250° 10 kt METAR CYHU 281700Z AUTO 25010KT 200V260 9SM OVC076 22/09 A3012 RMK SLP201 DENSITY ALT 800FT
12:00 pm
V
70 °F 9 mi 7.100 ft 240° 240° 8 kt METAR CYHU 281600Z AUTO 24008KT 180V290 9SM BKN071 BKN083 21/09 A3012 RMK SLP201 DENSITY ALT 600FT
11:00 am
V
70 °F 9 mi - Var Var 4 kt METAR CYHU 281500Z AUTO VRB04KT 9SM SCT060 21/08 A3011 RMK SLP199 DENSITY ALT 700FT
10:00 am
V
68 °F 9 mi - Var Var 2 kt METAR CYHU 281400Z AUTO VRB02KT 9SM CLR 20/08 A3012 RMK SLP200 DENSITY ALT 500FT
9:00 am
V
66 °F 9 mi 8.600 ft Var Var 2 kt METAR CYHU 281300Z AUTO VRB02KT 9SM OVC086 19/09 A3011 RMK SLP199 DENSITY ALT 400FT
8:00 am
V
64 °F 9 mi 8.100 ft 340° 340° 6 kt METAR CYHU 281200Z AUTO 34006KT 9SM OVC081 18/11 A3010 RMK SLP194 DENSITY ALT 300FT
7:00 am
V
63 °F 9 mi 9.600 ft 300° 300° 4 kt METAR CYHU 281100Z AUTO 30004KT 9SM OVC096 17/12 A3008 RMK SLP187 DENSITY ALT 200FT
6:00 am
V
61 °F 9 mi 9.200 ft 330° 330° 3 kt METAR CYHU 281000Z AUTO 33003KT 9SM SCT076 BKN092 16/13 A3005 RMK SLP179 DENSITY ALT 100FT
5:45 am
V
61 °F 9 mi 7.600 ft 330° 330° 3 kt METAR CYHU 280945Z AUTO 33003KT 9SM FEW060 BKN076 BKN087 16/12 A3005 RMK SLP178 DENSITY ALT 200FT
5:27 am
V
63 °F 9 mi 6.000 ft 330° 330° 6 kt METAR CYHU 280927Z AUTO 33006KT 9SM -RA FEW049 BKN060 OVC076 17/12 A3005 RMK SLP177 DENSITY ALT 200FT
5:00 am
V
63 °F 9 mi 6.000 ft 320° 320° 5 kt METAR CYHU 280900Z AUTO 32005KT 9SM BKN060 OVC075 17/12 A3003 RMK SLP172 DENSITY ALT 200FT
4:00 am
V
63 °F 9 mi 6.600 ft 320° 320° 7 kt METAR CYHU 280800Z AUTO 32007KT 9SM OVC066 17/12 A3002 RMK SLP166 DENSITY ALT 300FT
3:00 am
V
63 °F 9 mi 9.600 ft 300° 300° 6 kt METAR CYHU 280700Z AUTO 30006KT 9SM OVC096 17/12 A3000 RMK SLP162 DENSITY ALT 300FT
2:00 am
V
63 °F 9 mi - 310° 310° 7 kt METAR CYHU 280600Z AUTO 31007KT 9SM CLR 17/12 A2999 RMK SLP157 DENSITY ALT 300FT
1:28 am
V
63 °F 9 mi 9.600 ft 290° 290° 10 kt METAR CYHU 280528Z AUTO 29010KT 9SM BKN096 17/12 A2999 RMK SLP156 DENSITY ALT 400FT
1:15 am
V
64 °F 9 mi 9.400 ft 300° 300° 7 kt METAR CYHU 280515Z AUTO 30007KT 9SM -RA FEW060 BKN094 18/12 A2998 RMK SLP154 DENSITY ALT 400FT
1:00 am
V
64 °F 9 mi 9.600 ft 310° 310° 9 kt METAR CYHU 280500Z AUTO 31009KT 9SM FEW066 SCT077 BKN096 18/12 A2998 RMK SLP153 DENSITY ALT 400FT
12:00 am
V
66 °F 9 mi 7.600 ft 300° 300° 11 - 16 kt METAR CYHU 280400Z AUTO 30011G16KT 9SM BKN076 OVC094 19/11 A2997 RMK SLP151 DENSITY ALT 600FT

27 juin 2022

Temps Code Temps Temp. Vue Base cloud Vent METAR/SPECI
11:00 pm
V
66 °F 9 mi 9.100 ft 280° 280° 8 kt METAR CYHU 280300Z AUTO 28008KT 9SM BKN091 19/11 A2996 RMK SLP147 DENSITY ALT 600FT
10:00 pm
V
66 °F 9 mi - 270° 270° 8 kt METAR CYHU 280200Z AUTO 27008KT 9SM CLR 19/11 A2995 RMK SLP145 DENSITY ALT 600FT
9:00 pm
V
68 °F 9 mi - 280° 280° 10 kt METAR CYHU 280100Z AUTO 28010KT 9SM CLR 20/09 A2992 RMK SLP135 DENSITY ALT 800FT
8:00 pm
V
70 °F 9 mi - 260° 260° 10 - 17 kt METAR CYHU 280000Z AUTO 26010G17KT 9SM FEW060 21/10 A2991 RMK SLP130 DENSITY ALT 900FT
Données plus anciennes

Télécharge notre application

Un accès facile à toute la météo aéronautique sur ton téléphone portable et ta tablette.
Avec de nombreuses fonctionnalités non disponibles sur le site Web, comme la prise en charge hors ligne et une liste personnelle d'aéroports.

Nous et des tiers suivons ton comportement sur Internet sur notre site Web à l'aide de cookies. Si tu continues, nous supposons que tu acceptes notre politique en matière de cookies. Apprendre plus